CSN5427 ZGHA-ZLXY
Flight info
| Callsign | CSN5427 |
|---|---|
| Flight time | 1h 31m |
| Altitude | 24600 |
| Route | LLC W138 DYG W139 ENH W102 SHX |
| Aircraft | A320/M-SDE3FGHIRWY/LB1 |
Departure
| Time | 2026-04-28 10:11 |
|---|---|
| Airport | Changsha Huanghua International Airport (ZGHA) |
Arrival
| Time | 2026-04-28 11:42 |
|---|---|
| Airport | Xi'an Xianyang International Airport (ZLXY) |
| Time | Latitude | Longitude | Altitude | Speed | Heading |
|---|---|---|---|---|---|
| 2026-04-28 10:08 | 28.17930 | 113.21851 | 216 ft | 15 kts | 177° |
| 2026-04-28 10:08 | 28.17831 | 113.21857 | 214 ft | 14 kts | 177° |
| 2026-04-28 10:09 | 28.17752 | 113.21889 | 219 ft | 12 kts | 116° |
| 2026-04-28 10:09 | 28.17745 | 113.21974 | 216 ft | 10 kts | 84° |
| 2026-04-28 10:09 | 28.17773 | 113.22041 | 218 ft | 10 kts | 24° |
| 2026-04-28 10:09 | 28.17841 | 113.22042 | 219 ft | 10 kts | 356° |
| 2026-04-28 10:10 | 28.18066 | 113.22029 | 221 ft | 65 kts | 357° |
| 2026-04-28 10:10 | 28.18718 | 113.21988 | 216 ft | 120 kts | 357° |
| 2026-04-28 10:10 | 28.19705 | 113.21931 | 220 ft | 162 kts | 357° |
| 2026-04-28 10:10 | 28.20856 | 113.21865 | 665 ft | 169 kts | 357° |
| 2026-04-28 10:11 | 28.22022 | 113.21792 | 1289 ft | 166 kts | 359° |
| 2026-04-28 10:11 | 28.23210 | 113.21656 | 1615 ft | 183 kts | 346° |
| 2026-04-28 10:11 | 28.24299 | 113.20743 | 1816 ft | 216 kts | 306° |
| 2026-04-28 10:11 | 28.24695 | 113.18981 | 2071 ft | 249 kts | 275° |
| 2026-04-28 10:12 | 28.24581 | 113.16923 | 2541 ft | 270 kts | 265° |
| 2026-04-28 10:12 | 28.24282 | 113.14830 | 3351 ft | 274 kts | 262° |
| 2026-04-28 10:12 | 28.23933 | 113.12693 | 4225 ft | 275 kts | 260° |
| 2026-04-28 10:12 | 28.23359 | 113.10631 | 5151 ft | 275 kts | 239° |
| 2026-04-28 10:13 | 28.22061 | 113.09017 | 5935 ft | 281 kts | 213° |
| 2026-04-28 10:13 | 28.20252 | 113.08226 | 6788 ft | 281 kts | 188° |
| 2026-04-28 10:13 | 28.18316 | 113.07976 | 7658 ft | 278 kts | 194° |
| 2026-04-28 10:13 | 28.16556 | 113.07120 | 8505 ft | 276 kts | 216° |
| 2026-04-28 10:14 | 28.15236 | 113.05595 | 9271 ft | 277 kts | 237° |
| 2026-04-28 10:14 | 28.14507 | 113.03575 | 10016 ft | 281 kts | 258° |
| 2026-04-28 10:14 | 28.14218 | 113.01347 | 10436 ft | 295 kts | 260° |
| 2026-04-28 10:14 | 28.13923 | 112.98954 | 10576 ft | 318 kts | 260° |
| 2026-04-28 10:15 | 28.13622 | 112.96389 | 10698 ft | 339 kts | 263° |
| 2026-04-28 10:15 | 28.13594 | 112.93633 | 10825 ft | 361 kts | 271° |
| 2026-04-28 10:15 | 28.13764 | 112.90768 | 10946 ft | 378 kts | 272° |
| 2026-04-28 10:15 | 28.13946 | 112.87738 | 11214 ft | 390 kts | 272° |
| 2026-04-28 10:16 | 28.14132 | 112.84648 | 11729 ft | 395 kts | 272° |
| 2026-04-28 10:16 | 28.14315 | 112.81535 | 12282 ft | 398 kts | 271° |
| 2026-04-28 10:16 | 28.14496 | 112.78395 | 12850 ft | 401 kts | 271° |
| 2026-04-28 10:16 | 28.14680 | 112.75224 | 13389 ft | 405 kts | 272° |
| 2026-04-28 10:17 | 28.14867 | 112.72023 | 13870 ft | 409 kts | 272° |
| 2026-04-28 10:17 | 28.15052 | 112.68839 | 14308 ft | 412 kts | 272° |
| 2026-04-28 10:17 | 28.15240 | 112.65581 | 14762 ft | 415 kts | 272° |
| 2026-04-28 10:17 | 28.15425 | 112.62309 | 15193 ft | 418 kts | 272° |
| 2026-04-28 10:18 | 28.15608 | 112.59006 | 15627 ft | 421 kts | 272° |
| 2026-04-28 10:18 | 28.15791 | 112.55685 | 16045 ft | 424 kts | 272° |
| 2026-04-28 10:18 | 28.15974 | 112.52390 | 16436 ft | 427 kts | 272° |
| 2026-04-28 10:18 | 28.16164 | 112.49024 | 16838 ft | 429 kts | 272° |
| 2026-04-28 10:19 | 28.16353 | 112.45642 | 17227 ft | 431 kts | 272° |
| 2026-04-28 10:19 | 28.16542 | 112.42234 | 17559 ft | 435 kts | 272° |
| 2026-04-28 10:19 | 28.16730 | 112.38801 | 17897 ft | 438 kts | 272° |
| 2026-04-28 10:19 | 28.16919 | 112.35346 | 18248 ft | 440 kts | 272° |
| 2026-04-28 10:20 | 28.17107 | 112.31873 | 18565 ft | 443 kts | 272° |
| 2026-04-28 10:20 | 28.17305 | 112.28386 | 18884 ft | 444 kts | 273° |
| 2026-04-28 10:20 | 28.17583 | 112.24935 | 19165 ft | 447 kts | 275° |
| 2026-04-28 10:20 | 28.17946 | 112.21425 | 19453 ft | 449 kts | 276° |
| 2026-04-28 10:21 | 28.18354 | 112.17907 | 19752 ft | 451 kts | 276° |
| 2026-04-28 10:21 | 28.18776 | 112.14369 | 20035 ft | 453 kts | 276° |
| 2026-04-28 10:21 | 28.19189 | 112.10822 | 20356 ft | 453 kts | 275° |
| 2026-04-28 10:21 | 28.19584 | 112.07277 | 20681 ft | 454 kts | 275° |
| 2026-04-28 10:22 | 28.19965 | 112.03718 | 20976 ft | 455 kts | 275° |
| 2026-04-28 10:22 | 28.20399 | 112.00200 | 21247 ft | 457 kts | 278° |
| 2026-04-28 10:22 | 28.21252 | 111.96716 | 21483 ft | 462 kts | 288° |
| 2026-04-28 10:22 | 28.22603 | 111.93388 | 21675 ft | 468 kts | 297° |
| 2026-04-28 10:23 | 28.24357 | 111.90265 | 21866 ft | 471 kts | 301° |
| 2026-04-28 10:23 | 28.26157 | 111.87158 | 22075 ft | 472 kts | 301° |
| 2026-04-28 10:23 | 28.27952 | 111.84037 | 22261 ft | 473 kts | 300° |
| 2026-04-28 10:23 | 28.29745 | 111.80900 | 22459 ft | 474 kts | 300° |
| 2026-04-28 10:24 | 28.31535 | 111.77755 | 22734 ft | 473 kts | 299° |
| 2026-04-28 10:24 | 28.33291 | 111.74670 | 23059 ft | 472 kts | 299° |
| 2026-04-28 10:24 | 28.35074 | 111.71540 | 23279 ft | 472 kts | 299° |
| 2026-04-28 10:24 | 28.36859 | 111.68414 | 23457 ft | 473 kts | 299° |
| 2026-04-28 10:25 | 28.38654 | 111.65272 | 23618 ft | 474 kts | 299° |
| 2026-04-28 10:25 | 28.40452 | 111.62121 | 23754 ft | 475 kts | 299° |
| 2026-04-28 10:25 | 28.42250 | 111.58967 | 23879 ft | 476 kts | 299° |
| 2026-04-28 10:25 | 28.44047 | 111.55808 | 23996 ft | 477 kts | 299° |
| 2026-04-28 10:26 | 28.45848 | 111.52637 | 24110 ft | 478 kts | 299° |
| 2026-04-28 10:26 | 28.47631 | 111.49503 | 24227 ft | 479 kts | 299° |
| 2026-04-28 10:26 | 28.49440 | 111.46323 | 24329 ft | 480 kts | 299° |
| 2026-04-28 10:26 | 28.51252 | 111.43135 | 24441 ft | 480 kts | 299° |
| 2026-04-28 10:27 | 28.53061 | 111.39942 | 24577 ft | 481 kts | 299° |
| 2026-04-28 10:27 | 28.54871 | 111.36748 | 24624 ft | 480 kts | 299° |
| 2026-04-28 10:27 | 28.56680 | 111.33554 | 24620 ft | 480 kts | 299° |
| 2026-04-28 10:27 | 28.58489 | 111.30360 | 24622 ft | 480 kts | 299° |
| 2026-04-28 10:28 | 28.60271 | 111.27207 | 24626 ft | 480 kts | 299° |
| 2026-04-28 10:28 | 28.62077 | 111.24007 | 24623 ft | 480 kts | 298° |
| 2026-04-28 10:28 | 28.63879 | 111.20811 | 24624 ft | 480 kts | 299° |
| 2026-04-28 10:29 | 28.67492 | 111.14419 | 24624 ft | 480 kts | 299° |
| 2026-04-28 10:29 | 28.69307 | 111.11238 | 24645 ft | 476 kts | 299° |
| 2026-04-28 10:29 | 28.71116 | 111.08079 | 24647 ft | 475 kts | 299° |
| 2026-04-28 10:29 | 28.72896 | 111.04975 | 24643 ft | 474 kts | 299° |
| 2026-04-28 10:30 | 28.74697 | 111.01826 | 24641 ft | 474 kts | 299° |
| 2026-04-28 10:30 | 28.76490 | 110.98683 | 24640 ft | 473 kts | 299° |
| 2026-04-28 10:30 | 28.78280 | 110.95534 | 24637 ft | 473 kts | 299° |
| 2026-04-28 10:30 | 28.80067 | 110.92382 | 24634 ft | 473 kts | 299° |
| 2026-04-28 10:31 | 28.81853 | 110.89232 | 24635 ft | 473 kts | 299° |
| 2026-04-28 10:31 | 28.83639 | 110.86077 | 24632 ft | 473 kts | 299° |
| 2026-04-28 10:31 | 28.85423 | 110.82928 | 24628 ft | 473 kts | 299° |
| 2026-04-28 10:31 | 28.87181 | 110.79822 | 24635 ft | 472 kts | 299° |
| 2026-04-28 10:32 | 28.88963 | 110.76670 | 24627 ft | 472 kts | 299° |
| 2026-04-28 10:32 | 28.90746 | 110.73516 | 24622 ft | 472 kts | 299° |
| 2026-04-28 10:32 | 28.92527 | 110.70367 | 24615 ft | 472 kts | 299° |
| 2026-04-28 10:32 | 28.94307 | 110.67218 | 24617 ft | 473 kts | 299° |
| 2026-04-28 10:33 | 28.96088 | 110.64060 | 24618 ft | 473 kts | 299° |
| 2026-04-28 10:33 | 28.97841 | 110.60946 | 24619 ft | 473 kts | 299° |
| 2026-04-28 10:33 | 28.99621 | 110.57787 | 24618 ft | 473 kts | 299° |
| 2026-04-28 10:33 | 29.01400 | 110.54630 | 24616 ft | 473 kts | 299° |
| 2026-04-28 10:34 | 29.03180 | 110.51469 | 24621 ft | 473 kts | 299° |
| 2026-04-28 10:34 | 29.04961 | 110.48305 | 24624 ft | 473 kts | 298° |
| 2026-04-28 10:34 | 29.06739 | 110.45143 | 24621 ft | 473 kts | 300° |
| 2026-04-28 10:34 | 29.08765 | 110.42152 | 24623 ft | 479 kts | 309° |
| 2026-04-28 10:35 | 29.11213 | 110.39547 | 24622 ft | 484 kts | 318° |
| 2026-04-28 10:35 | 29.13981 | 110.37419 | 24615 ft | 489 kts | 326° |
| 2026-04-28 10:35 | 29.16932 | 110.35478 | 24615 ft | 490 kts | 326° |
| 2026-04-28 10:35 | 29.19884 | 110.33528 | 24615 ft | 490 kts | 326° |
| 2026-04-28 10:36 | 29.22834 | 110.31569 | 24618 ft | 490 kts | 326° |
| 2026-04-28 10:36 | 29.25786 | 110.29603 | 24621 ft | 491 kts | 326° |
| 2026-04-28 10:36 | 29.28738 | 110.27634 | 24624 ft | 491 kts | 326° |
| 2026-04-28 10:36 | 29.31694 | 110.25665 | 24619 ft | 491 kts | 326° |
| 2026-04-28 10:37 | 29.34613 | 110.23724 | 24627 ft | 491 kts | 326° |
| 2026-04-28 10:37 | 29.37567 | 110.21759 | 24626 ft | 491 kts | 326° |
| 2026-04-28 10:37 | 29.40519 | 110.19790 | 24645 ft | 491 kts | 326° |
| 2026-04-28 10:37 | 29.43474 | 110.17814 | 24638 ft | 491 kts | 326° |
| 2026-04-28 10:38 | 29.46423 | 110.15842 | 24638 ft | 491 kts | 326° |
| 2026-04-28 10:38 | 29.49381 | 110.13863 | 24637 ft | 491 kts | 326° |
| 2026-04-28 10:38 | 29.52334 | 110.11887 | 24633 ft | 492 kts | 325° |
| 2026-04-28 10:38 | 29.55292 | 110.09909 | 24629 ft | 492 kts | 325° |
| 2026-04-28 10:39 | 29.58254 | 110.07931 | 24631 ft | 492 kts | 325° |
| 2026-04-28 10:39 | 29.61175 | 110.05980 | 24629 ft | 493 kts | 325° |
| 2026-04-28 10:39 | 29.64140 | 110.03998 | 24634 ft | 493 kts | 325° |
| 2026-04-28 10:39 | 29.67110 | 110.02015 | 24636 ft | 494 kts | 325° |
| 2026-04-28 10:40 | 29.70084 | 110.00030 | 24629 ft | 494 kts | 325° |
| 2026-04-28 10:40 | 29.73057 | 109.98042 | 24630 ft | 494 kts | 325° |
| 2026-04-28 10:40 | 29.76029 | 109.96049 | 24636 ft | 494 kts | 325° |
| 2026-04-28 10:40 | 29.78998 | 109.94055 | 24643 ft | 494 kts | 325° |
| 2026-04-28 10:41 | 29.81928 | 109.92089 | 24644 ft | 494 kts | 325° |
| 2026-04-28 10:41 | 29.84894 | 109.90097 | 24638 ft | 493 kts | 325° |
| 2026-04-28 10:41 | 29.87859 | 109.88102 | 24640 ft | 493 kts | 325° |
| 2026-04-28 10:41 | 29.90825 | 109.86103 | 24644 ft | 493 kts | 325° |
| 2026-04-28 10:42 | 29.93790 | 109.84105 | 24647 ft | 494 kts | 325° |
| 2026-04-28 10:42 | 29.96723 | 109.82129 | 24645 ft | 494 kts | 325° |
| 2026-04-28 10:42 | 29.99688 | 109.80130 | 24668 ft | 493 kts | 326° |
| 2026-04-28 10:42 | 30.02656 | 109.78130 | 24753 ft | 495 kts | 326° |
| 2026-04-28 10:43 | 30.05626 | 109.76124 | 24878 ft | 496 kts | 326° |
| 2026-04-28 10:43 | 30.08608 | 109.74107 | 25057 ft | 495 kts | 326° |
| 2026-04-28 10:43 | 30.11576 | 109.72096 | 25261 ft | 494 kts | 325° |
| 2026-04-28 10:43 | 30.14541 | 109.70087 | 25463 ft | 494 kts | 325° |
| 2026-04-28 10:44 | 30.17500 | 109.68084 | 25625 ft | 493 kts | 325° |
| 2026-04-28 10:44 | 30.20417 | 109.66108 | 25666 ft | 492 kts | 325° |
| 2026-04-28 10:44 | 30.23369 | 109.64107 | 25672 ft | 492 kts | 326° |
| 2026-04-28 10:44 | 30.26456 | 109.62356 | 25671 ft | 497 kts | 334° |
| 2026-04-28 10:45 | 30.29780 | 109.61185 | 25687 ft | 502 kts | 344° |
| 2026-04-28 10:45 | 30.33244 | 109.60640 | 25671 ft | 505 kts | 353° |
| 2026-04-28 10:45 | 30.36771 | 109.60729 | 25676 ft | 508 kts | 0° |
| 2026-04-28 10:45 | 30.40297 | 109.61001 | 25676 ft | 508 kts | 0° |
| 2026-04-28 10:46 | 30.43776 | 109.61288 | 25676 ft | 508 kts | 1° |
| 2026-04-28 10:46 | 30.47306 | 109.61605 | 25677 ft | 508 kts | 1° |
| 2026-04-28 10:46 | 30.50835 | 109.61937 | 25675 ft | 508 kts | 1° |
| 2026-04-28 10:46 | 30.54362 | 109.62274 | 25677 ft | 508 kts | 1° |
| 2026-04-28 10:47 | 30.57881 | 109.62608 | 25689 ft | 508 kts | 1° |
| 2026-04-28 10:47 | 30.61403 | 109.62937 | 25679 ft | 507 kts | 1° |
| 2026-04-28 10:47 | 30.64920 | 109.63261 | 25677 ft | 507 kts | 1° |
| 2026-04-28 10:47 | 30.68391 | 109.63578 | 25674 ft | 507 kts | 1° |
| 2026-04-28 10:48 | 30.71908 | 109.63899 | 25672 ft | 507 kts | 1° |
| 2026-04-28 10:48 | 30.75424 | 109.64222 | 25671 ft | 507 kts | 1° |
| 2026-04-28 10:48 | 30.78934 | 109.64544 | 25676 ft | 507 kts | 1° |
| 2026-04-28 10:48 | 30.82450 | 109.64863 | 25694 ft | 507 kts | 0° |
| 2026-04-28 10:49 | 30.85970 | 109.65178 | 25682 ft | 507 kts | 0° |
| 2026-04-28 10:49 | 30.88296 | 109.65386 | 25679 ft | 507 kts | 0° |
| 2026-04-28 10:49 | 30.92961 | 109.65808 | 25675 ft | 507 kts | 0° |
| 2026-04-28 10:49 | 30.96480 | 109.66132 | 25673 ft | 507 kts | 1° |
| 2026-04-28 10:50 | 30.99999 | 109.66458 | 25675 ft | 507 kts | 1° |
| 2026-04-28 10:50 | 31.02330 | 109.66674 | 25675 ft | 507 kts | 1° |
| 2026-04-28 10:50 | 31.07039 | 109.67112 | 25675 ft | 508 kts | 0° |
| 2026-04-28 10:50 | 31.10562 | 109.67436 | 25691 ft | 508 kts | 0° |
| 2026-04-28 10:51 | 31.14082 | 109.67756 | 25691 ft | 508 kts | 0° |
| 2026-04-28 10:51 | 31.17560 | 109.68073 | 25691 ft | 508 kts | 0° |
| 2026-04-28 10:51 | 31.21082 | 109.68394 | 25693 ft | 508 kts | 0° |
| 2026-04-28 10:51 | 31.24604 | 109.68712 | 25695 ft | 508 kts | 0° |
| 2026-04-28 10:52 | 31.28128 | 109.69032 | 25696 ft | 508 kts | 0° |
| 2026-04-28 10:52 | 31.31653 | 109.69357 | 25706 ft | 508 kts | 0° |
| 2026-04-28 10:52 | 31.35173 | 109.69682 | 25723 ft | 508 kts | 360° |
| 2026-04-28 10:52 | 31.38694 | 109.70007 | 25730 ft | 508 kts | 360° |
| 2026-04-28 10:53 | 31.42215 | 109.70331 | 25727 ft | 508 kts | 360° |
| 2026-04-28 10:53 | 31.45686 | 109.70652 | 25724 ft | 507 kts | 360° |
| 2026-04-28 10:53 | 31.49207 | 109.70979 | 25733 ft | 507 kts | 360° |
| 2026-04-28 10:53 | 31.52725 | 109.71308 | 25729 ft | 507 kts | 360° |
| 2026-04-28 10:54 | 31.56242 | 109.71638 | 25727 ft | 507 kts | 360° |
| 2026-04-28 10:54 | 31.59762 | 109.71965 | 25757 ft | 507 kts | 359° |
| 2026-04-28 10:54 | 31.63283 | 109.72292 | 25752 ft | 507 kts | 360° |
| 2026-04-28 10:54 | 31.66803 | 109.72620 | 25749 ft | 507 kts | 359° |
| 2026-04-28 10:55 | 31.69131 | 109.72836 | 25743 ft | 507 kts | 360° |
| 2026-04-28 10:55 | 31.73790 | 109.73269 | 25749 ft | 507 kts | 360° |
| 2026-04-28 10:55 | 31.77310 | 109.73597 | 25749 ft | 508 kts | 359° |
| 2026-04-28 10:55 | 31.80836 | 109.73925 | 25760 ft | 508 kts | 359° |
| 2026-04-28 10:56 | 31.84358 | 109.74253 | 25762 ft | 508 kts | 359° |
| 2026-04-28 10:56 | 31.86693 | 109.74471 | 25782 ft | 508 kts | 359° |
| 2026-04-28 10:56 | 31.91401 | 109.74908 | 25777 ft | 507 kts | 359° |
| 2026-04-28 10:56 | 31.93731 | 109.75122 | 25773 ft | 507 kts | 359° |
| 2026-04-28 10:57 | 31.98386 | 109.75552 | 25770 ft | 507 kts | 359° |
| 2026-04-28 10:57 | 32.01901 | 109.75877 | 25769 ft | 507 kts | 359° |
| 2026-04-28 10:57 | 32.05418 | 109.76205 | 25766 ft | 507 kts | 359° |
| 2026-04-28 10:57 | 32.08933 | 109.76535 | 25764 ft | 507 kts | 359° |
| 2026-04-28 10:58 | 32.11260 | 109.76755 | 25790 ft | 507 kts | 359° |
| 2026-04-28 10:58 | 32.15938 | 109.76708 | 25761 ft | 498 kts | 347° |
| 2026-04-28 10:58 | 32.18178 | 109.76216 | 25761 ft | 492 kts | 340° |
| 2026-04-28 10:58 | 32.22379 | 109.74391 | 25751 ft | 481 kts | 327° |
| 2026-04-28 10:59 | 32.24337 | 109.73082 | 25752 ft | 476 kts | 321° |
| 2026-04-28 10:59 | 32.27739 | 109.69900 | 25742 ft | 467 kts | 310° |
| 2026-04-28 10:59 | 32.29208 | 109.68061 | 25746 ft | 464 kts | 307° |
| 2026-04-28 10:59 | 32.32109 | 109.64269 | 25753 ft | 465 kts | 307° |
| 2026-04-28 11:00 | 32.34281 | 109.61430 | 25748 ft | 465 kts | 307° |
| 2026-04-28 11:00 | 32.35717 | 109.59547 | 25748 ft | 465 kts | 307° |
| 2026-04-28 11:00 | 32.38588 | 109.55777 | 25751 ft | 466 kts | 307° |
| 2026-04-28 11:00 | 32.40756 | 109.52928 | 25748 ft | 466 kts | 307° |
| 2026-04-28 11:01 | 32.42924 | 109.50080 | 25759 ft | 466 kts | 307° |
| 2026-04-28 11:01 | 32.44363 | 109.48190 | 25752 ft | 466 kts | 306° |
| 2026-04-28 11:01 | 32.46537 | 109.45333 | 25760 ft | 467 kts | 307° |
| 2026-04-28 11:01 | 32.49443 | 109.41507 | 25752 ft | 467 kts | 306° |
| 2026-04-28 11:02 | 32.50882 | 109.39609 | 25755 ft | 467 kts | 307° |
| 2026-04-28 11:02 | 32.53053 | 109.36740 | 25755 ft | 468 kts | 307° |
| 2026-04-28 11:02 | 32.55222 | 109.33869 | 25755 ft | 468 kts | 307° |
| 2026-04-28 11:02 | 32.58099 | 109.30059 | 25760 ft | 468 kts | 307° |
| 2026-04-28 11:03 | 32.59567 | 109.28114 | 25756 ft | 468 kts | 307° |
| 2026-04-28 11:03 | 32.61709 | 109.25278 | 25750 ft | 468 kts | 306° |
| 2026-04-28 11:03 | 32.63881 | 109.22402 | 25748 ft | 468 kts | 307° |
| 2026-04-28 11:03 | 32.66052 | 109.19522 | 25744 ft | 468 kts | 307° |
| 2026-04-28 11:04 | 32.68219 | 109.16643 | 25752 ft | 468 kts | 307° |
| 2026-04-28 11:04 | 32.70389 | 109.13760 | 25748 ft | 468 kts | 307° |
| 2026-04-28 11:04 | 32.72559 | 109.10876 | 25771 ft | 468 kts | 307° |
| 2026-04-28 11:04 | 32.74732 | 109.07989 | 25764 ft | 468 kts | 307° |
| 2026-04-28 11:05 | 32.76873 | 109.05140 | 25758 ft | 469 kts | 307° |
| 2026-04-28 11:05 | 32.79043 | 109.02250 | 25754 ft | 469 kts | 307° |
| 2026-04-28 11:05 | 32.81212 | 108.99357 | 25752 ft | 469 kts | 307° |
| 2026-04-28 11:05 | 32.83384 | 108.96459 | 25753 ft | 469 kts | 307° |
| 2026-04-28 11:06 | 32.85552 | 108.93564 | 25752 ft | 469 kts | 307° |
| 2026-04-28 11:06 | 32.88425 | 108.89715 | 25751 ft | 470 kts | 307° |
| 2026-04-28 11:06 | 32.89892 | 108.87749 | 25750 ft | 470 kts | 307° |
| 2026-04-28 11:06 | 32.92063 | 108.84839 | 25757 ft | 470 kts | 307° |
| 2026-04-28 11:07 | 32.94204 | 108.81970 | 25754 ft | 470 kts | 307° |
| 2026-04-28 11:07 | 32.96373 | 108.79064 | 25755 ft | 470 kts | 307° |
| 2026-04-28 11:07 | 32.98547 | 108.76151 | 25763 ft | 469 kts | 307° |
| 2026-04-28 11:07 | 33.00714 | 108.73243 | 25759 ft | 470 kts | 307° |
| 2026-04-28 11:08 | 33.02882 | 108.70328 | 25761 ft | 470 kts | 307° |
| 2026-04-28 11:08 | 33.05051 | 108.67407 | 25777 ft | 470 kts | 307° |
| 2026-04-28 11:08 | 33.07216 | 108.64490 | 25778 ft | 470 kts | 307° |
| 2026-04-28 11:08 | 33.09382 | 108.61568 | 25775 ft | 470 kts | 307° |
| 2026-04-28 11:09 | 33.11515 | 108.58689 | 25772 ft | 470 kts | 307° |
| 2026-04-28 11:09 | 33.13676 | 108.55775 | 25591 ft | 468 kts | 307° |
| 2026-04-28 11:09 | 33.15836 | 108.52863 | 25358 ft | 469 kts | 308° |
| 2026-04-28 11:09 | 33.18003 | 108.49939 | 25127 ft | 469 kts | 308° |
| 2026-04-28 11:10 | 33.20164 | 108.47014 | 24899 ft | 470 kts | 308° |
| 2026-04-28 11:10 | 33.22302 | 108.44118 | 24673 ft | 470 kts | 308° |
| 2026-04-28 11:10 | 33.24472 | 108.41201 | 24445 ft | 468 kts | 310° |
| 2026-04-28 11:10 | 33.26934 | 108.38664 | 24215 ft | 470 kts | 322° |
| 2026-04-28 11:11 | 33.29815 | 108.36802 | 23997 ft | 473 kts | 335° |
| 2026-04-28 11:11 | 33.32994 | 108.35726 | 23779 ft | 477 kts | 347° |
| 2026-04-28 11:11 | 33.36313 | 108.35494 | 23531 ft | 480 kts | 359° |
| 2026-04-28 11:11 | 33.39570 | 108.36125 | 23267 ft | 482 kts | 12° |
| 2026-04-28 11:12 | 33.42694 | 108.37616 | 23001 ft | 485 kts | 23° |
| 2026-04-28 11:12 | 33.45662 | 108.39393 | 22733 ft | 468 kts | 23° |
| 2026-04-28 11:12 | 33.48515 | 108.41112 | 22471 ft | 451 kts | 23° |
| 2026-04-28 11:12 | 33.51269 | 108.42774 | 22216 ft | 436 kts | 23° |
| 2026-04-28 11:13 | 33.53940 | 108.44383 | 21943 ft | 424 kts | 23° |
| 2026-04-28 11:13 | 33.56542 | 108.45947 | 21690 ft | 413 kts | 23° |
| 2026-04-28 11:13 | 33.59090 | 108.47475 | 21450 ft | 405 kts | 23° |
| 2026-04-28 11:13 | 33.61550 | 108.48950 | 21205 ft | 397 kts | 23° |
| 2026-04-28 11:14 | 33.63996 | 108.50414 | 20951 ft | 388 kts | 23° |
| 2026-04-28 11:14 | 33.66385 | 108.51845 | 20695 ft | 380 kts | 23° |
| 2026-04-28 11:14 | 33.68722 | 108.53250 | 20464 ft | 371 kts | 23° |
| 2026-04-28 11:14 | 33.71006 | 108.54622 | 20219 ft | 363 kts | 23° |
| 2026-04-28 11:15 | 33.73238 | 108.55962 | 19968 ft | 355 kts | 23° |
| 2026-04-28 11:15 | 33.75423 | 108.57274 | 19733 ft | 347 kts | 23° |
| 2026-04-28 11:15 | 33.77532 | 108.58542 | 19500 ft | 340 kts | 24° |
| 2026-04-28 11:15 | 33.79632 | 108.59804 | 19260 ft | 336 kts | 24° |
| 2026-04-28 11:16 | 33.81713 | 108.61051 | 19022 ft | 333 kts | 24° |
| 2026-04-28 11:16 | 33.83768 | 108.62283 | 18791 ft | 328 kts | 24° |
| 2026-04-28 11:16 | 33.85800 | 108.63505 | 18564 ft | 326 kts | 24° |
| 2026-04-28 11:16 | 33.87821 | 108.64715 | 18320 ft | 323 kts | 22° |
| 2026-04-28 11:17 | 33.89935 | 108.65531 | 18052 ft | 318 kts | 8° |
| 2026-04-28 11:17 | 33.92123 | 108.65678 | 17774 ft | 314 kts | 354° |
| 2026-04-28 11:17 | 33.94222 | 108.65190 | 17510 ft | 312 kts | 341° |
| 2026-04-28 11:17 | 33.96180 | 108.64096 | 17221 ft | 310 kts | 328° |
| 2026-04-28 11:18 | 33.97941 | 108.62554 | 16626 ft | 315 kts | 323° |
| 2026-04-28 11:18 | 33.99667 | 108.60962 | 16350 ft | 310 kts | 323° |
| 2026-04-28 11:18 | 34.01380 | 108.59380 | 15939 ft | 309 kts | 324° |
| 2026-04-28 11:18 | 34.03076 | 108.57816 | 15334 ft | 306 kts | 324° |
| 2026-04-28 11:19 | 34.04737 | 108.56283 | 14685 ft | 304 kts | 325° |
| 2026-04-28 11:19 | 34.06414 | 108.54733 | 14055 ft | 302 kts | 325° |
| 2026-04-28 11:19 | 34.08074 | 108.53199 | 13378 ft | 299 kts | 325° |
| 2026-04-28 11:19 | 34.09717 | 108.51678 | 12699 ft | 297 kts | 325° |
| 2026-04-28 11:20 | 34.11444 | 108.50366 | 12039 ft | 292 kts | 337° |
| 2026-04-28 11:20 | 34.13345 | 108.49557 | 11366 ft | 288 kts | 345° |
| 2026-04-28 11:20 | 34.15257 | 108.48890 | 10814 ft | 284 kts | 345° |
| 2026-04-28 11:20 | 34.17140 | 108.48231 | 10277 ft | 280 kts | 345° |
| 2026-04-28 11:21 | 34.18987 | 108.47693 | 9729 ft | 274 kts | 356° |
| 2026-04-28 11:21 | 34.20864 | 108.47831 | 9165 ft | 269 kts | 15° |
| 2026-04-28 11:21 | 34.22568 | 108.48683 | 8623 ft | 264 kts | 33° |
| 2026-04-28 11:21 | 34.23939 | 108.50129 | 8071 ft | 261 kts | 49° |
| 2026-04-28 11:22 | 34.25132 | 108.51778 | 7506 ft | 260 kts | 49° |
| 2026-04-28 11:22 | 34.26325 | 108.53418 | 6949 ft | 259 kts | 50° |
| 2026-04-28 11:22 | 34.27516 | 108.55050 | 6413 ft | 258 kts | 50° |
| 2026-04-28 11:22 | 34.28701 | 108.56673 | 5859 ft | 257 kts | 50° |
| 2026-04-28 11:23 | 34.29866 | 108.58268 | 5321 ft | 256 kts | 50° |
| 2026-04-28 11:23 | 34.31038 | 108.59874 | 4836 ft | 251 kts | 50° |
| 2026-04-28 11:23 | 34.32151 | 108.61396 | 4706 ft | 232 kts | 51° |
| 2026-04-28 11:23 | 34.33177 | 108.62801 | 4576 ft | 213 kts | 51° |
| 2026-04-28 11:24 | 34.34119 | 108.64092 | 4397 ft | 198 kts | 51° |
| 2026-04-28 11:24 | 34.35012 | 108.65320 | 4130 ft | 187 kts | 51° |
| 2026-04-28 11:24 | 34.35688 | 108.66247 | 4786 ft | 118 kts | 53° |
| 2026-04-28 11:24 | 34.36304 | 108.67048 | 4244 ft | 165 kts | 50° |
| 2026-04-28 11:25 | 34.37038 | 108.67934 | 5451 ft | 105 kts | 47° |
| 2026-04-28 11:25 | 34.37482 | 108.68412 | 5873 ft | 84 kts | 55° |
| 2026-04-28 11:25 | 34.38246 | 108.69199 | 4153 ft | 216 kts | 37° |
| 2026-04-28 11:25 | 34.39421 | 108.70149 | 5021 ft | 225 kts | 38° |
| 2026-04-28 11:26 | 34.40884 | 108.71387 | 4813 ft | 287 kts | 37° |
| 2026-04-28 11:26 | 34.42695 | 108.72939 | 3723 ft | 349 kts | 37° |
| 2026-04-28 11:26 | 34.44862 | 108.74379 | 4426 ft | 357 kts | 20° |
| 2026-04-28 11:26 | 34.47348 | 108.74879 | 5038 ft | 375 kts | 2° |
| 2026-04-28 11:27 | 34.50029 | 108.74640 | 5476 ft | 386 kts | 356° |
| 2026-04-28 11:27 | 34.52645 | 108.74326 | 6877 ft | 375 kts | 356° |
| 2026-04-28 11:27 | 34.55215 | 108.73644 | 7368 ft | 395 kts | 340° |
| 2026-04-28 11:27 | 34.57627 | 108.72035 | 8481 ft | 391 kts | 330° |
| 2026-04-28 11:28 | 34.59978 | 108.70274 | 8807 ft | 408 kts | 328° |
| 2026-04-28 11:28 | 34.62180 | 108.68239 | 8561 ft | 390 kts | 321° |
| 2026-04-28 11:28 | 34.64118 | 108.66025 | 8049 ft | 379 kts | 311° |
| 2026-04-28 11:28 | 34.65341 | 108.63193 | 7121 ft | 385 kts | 285° |
| 2026-04-28 11:29 | 34.65355 | 108.60006 | 6732 ft | 374 kts | 257° |
| 2026-04-28 11:29 | 34.64271 | 108.57217 | 6337 ft | 362 kts | 230° |
| 2026-04-28 11:29 | 34.62387 | 108.55371 | 5986 ft | 348 kts | 206° |
| 2026-04-28 11:29 | 34.60292 | 108.54058 | 5916 ft | 330 kts | 205° |
| 2026-04-28 11:30 | 34.58303 | 108.52801 | 5864 ft | 314 kts | 205° |
| 2026-04-28 11:30 | 34.54812 | 108.50033 | 5758 ft | 288 kts | 218° |
| 2026-04-28 11:30 | 34.53313 | 108.48496 | 5703 ft | 276 kts | 218° |
| 2026-04-28 11:31 | 34.51885 | 108.47014 | 5646 ft | 264 kts | 218° |
| 2026-04-28 11:31 | 34.50599 | 108.45492 | 5600 ft | 253 kts | 231° |
| 2026-04-28 11:31 | 34.49611 | 108.43783 | 5550 ft | 242 kts | 235° |
| 2026-04-28 11:31 | 34.48727 | 108.42141 | 5506 ft | 230 kts | 235° |
| 2026-04-28 11:32 | 34.47890 | 108.40546 | 5451 ft | 218 kts | 236° |
| 2026-04-28 11:32 | 34.47071 | 108.39074 | 5389 ft | 203 kts | 223° |
| 2026-04-28 11:32 | 34.45989 | 108.38146 | 5330 ft | 182 kts | 195° |
| 2026-04-28 11:32 | 34.44817 | 108.37893 | 5214 ft | 167 kts | 171° |
| 2026-04-28 11:33 | 34.43632 | 108.38208 | 5457 ft | 177 kts | 157° |
| 2026-04-28 11:33 | 34.42555 | 108.38815 | 6043 ft | 176 kts | 145° |
| 2026-04-28 11:33 | 34.41454 | 108.39719 | 6064 ft | 211 kts | 142° |
| 2026-04-28 11:33 | 34.40230 | 108.40788 | 5933 ft | 215 kts | 142° |
| 2026-04-28 11:34 | 34.39054 | 108.41804 | 5803 ft | 206 kts | 142° |
| 2026-04-28 11:34 | 34.37891 | 108.42787 | 5679 ft | 203 kts | 142° |
| 2026-04-28 11:34 | 34.36735 | 108.43754 | 5543 ft | 202 kts | 142° |
| 2026-04-28 11:34 | 34.35630 | 108.44787 | 5327 ft | 198 kts | 127° |
| 2026-04-28 11:35 | 34.34825 | 108.46120 | 5146 ft | 196 kts | 124° |
| 2026-04-28 11:35 | 34.33979 | 108.47409 | 5005 ft | 196 kts | 126° |
| 2026-04-28 11:35 | 34.33118 | 108.48691 | 5002 ft | 197 kts | 127° |
| 2026-04-28 11:35 | 34.32255 | 108.49975 | 5003 ft | 198 kts | 127° |
| 2026-04-28 11:36 | 34.31399 | 108.51277 | 5003 ft | 201 kts | 127° |
| 2026-04-28 11:36 | 34.30550 | 108.52621 | 5002 ft | 201 kts | 120° |
| 2026-04-28 11:36 | 34.30129 | 108.54201 | 5001 ft | 199 kts | 90° |
| 2026-04-28 11:36 | 34.30233 | 108.55866 | 5003 ft | 199 kts | 84° |
| 2026-04-28 11:37 | 34.30374 | 108.57531 | 4998 ft | 199 kts | 84° |
| 2026-04-28 11:37 | 34.30702 | 108.59150 | 4920 ft | 199 kts | 65° |
| 2026-04-28 11:37 | 34.31460 | 108.60475 | 4668 ft | 186 kts | 51° |
| 2026-04-28 11:37 | 34.32272 | 108.61584 | 4439 ft | 164 kts | 51° |
| 2026-04-28 11:38 | 34.32974 | 108.62547 | 4221 ft | 148 kts | 51° |
| 2026-04-28 11:38 | 34.33644 | 108.63467 | 4038 ft | 143 kts | 51° |
| 2026-04-28 11:38 | 34.34297 | 108.64366 | 3849 ft | 142 kts | 51° |
| 2026-04-28 11:38 | 34.34942 | 108.65253 | 3667 ft | 140 kts | 51° |
| 2026-04-28 11:39 | 34.35581 | 108.66133 | 3486 ft | 139 kts | 51° |
| 2026-04-28 11:39 | 34.36222 | 108.67013 | 3305 ft | 140 kts | 51° |
| 2026-04-28 11:39 | 34.36868 | 108.67903 | 3121 ft | 141 kts | 51° |
| 2026-04-28 11:39 | 34.37515 | 108.68793 | 2941 ft | 140 kts | 50° |
| 2026-04-28 11:40 | 34.38159 | 108.69679 | 2752 ft | 141 kts | 50° |
| 2026-04-28 11:40 | 34.38813 | 108.70579 | 2582 ft | 142 kts | 49° |
| 2026-04-28 11:40 | 34.39457 | 108.71471 | 2400 ft | 143 kts | 49° |
| 2026-04-28 11:40 | 34.40109 | 108.72370 | 2166 ft | 141 kts | 50° |
| 2026-04-28 11:41 | 34.40752 | 108.73254 | 1969 ft | 139 kts | 50° |
| 2026-04-28 11:41 | 34.41390 | 108.74137 | 1802 ft | 139 kts | 49° |
| 2026-04-28 11:41 | 34.42032 | 108.75022 | 1630 ft | 139 kts | 50° |
| 2026-04-28 11:41 | 34.42628 | 108.75843 | 1573 ft | 101 kts | 48° |
| 2026-04-28 11:42 | 34.42924 | 108.76251 | 1574 ft | 48 kts | 49° |
| 2026-04-28 11:42 | 34.43140 | 108.76539 | 1576 ft | 39 kts | 37° |
| 2026-04-28 11:42 | 34.43318 | 108.76651 | 1577 ft | 22 kts | 21° |
| 2026-04-28 11:42 | 34.43470 | 108.76661 | 1575 ft | 23 kts | 319° |
| 2026-04-28 11:43 | 34.43561 | 108.76556 | 1575 ft | 19 kts | 318° |
| 2026-04-28 11:43 | 34.43652 | 108.76444 | 1575 ft | 18 kts | 298° |
| 2026-04-28 11:43 | 34.43630 | 108.76317 | 1575 ft | 16 kts | 248° |
| 2026-04-28 11:43 | 34.43672 | 108.76221 | 1575 ft | 14 kts | 317° |
| 2026-04-28 11:44 | 34.43687 | 108.76144 | 1574 ft | 9 kts | 227° |
| 2026-04-28 11:44 | 34.43662 | 108.76112 | 1574 ft | 0 kts | 227° |